Quincey Cenac — WDI9133 — position and weather

sailwx.info

Track history (hours):
 
Tides and Currents Weather Stations Pressure Air Temp Water Temp Dewpoint Dewpoint Depression Visibility Wind Speed Wind Dir Waves Ship Positions

Quincey Cenac

Owner: Cenac Marine Services, Houma, LA. More information available from US FCC via Universal Licensing System and Coast Guard Vessel Documentation Center.

Last reported at 2017-Dec-17 08:51 UTC. Time now 2017-Dec-17 09:53 UTC.
Position N 29°46' W 095°05'.

Length 22 m; draft 9.6 m.

Type: Tug. MMSI: 367745570.

Date/timePositionNaut miles runAvg speedWind from/ knotsBaromVisibWave heightAir tempDewpointWater temp
2017-Dec-17 08:51N 29°46' W 095°05'0 0.0
2017-Dec-17 08:30N 29°46' W 095°05'0 0.0
2017-Dec-16 11:42N 29°46' W 095°05'0 0.0
2017-Dec-16 09:57N 29°46' W 095°05'0 0.0
2017-Dec-16 09:30N 29°46' W 095°05'0 0.0
2017-Dec-15 09:12N 29°46' W 095°05'0 0.0
2017-Dec-15 06:36N 29°46' W 095°05'1 2.8
2017-Dec-15 06:12N 29°45' W 095°04'1 5.6
2017-Dec-15 06:00N 29°44' W 095°04'2 4.9
2017-Dec-15 05:30N 29°43' W 095°01'2 4.9
2017-Dec-15 05:00N 29°41' W 094°59'3 6.0
2017-Dec-15 04:30N 29°39' W 094°58'3 6.2
2017-Dec-15 04:00N 29°36' W 094°57'  
2017-Dec-10 14:06N 29°31' W 094°53'1 7.5
2017-Dec-10 13:59N 29°32' W 094°54'3 7.2
2017-Dec-10 13:30N 29°35' W 094°56'4 7.2
2017-Dec-10 13:00N 29°38' W 094°58'4 7.5
2017-Dec-10 12:30N 29°41' W 094°59'3 6.1
2017-Dec-10 11:58N 29°44' W 095°02'3 6.0
2017-Dec-10 11:28N 29°46' W 095°04'2 5.3
2017-Dec-10 11:00N 29°44' W 095°07'3 5.1
2017-Dec-10 10:30N 29°45' W 095°10'2 4.9
2017-Dec-10 10:00N 29°44' W 095°12'1 1.2
2017-Dec-10 08:56N 29°44' W 095°14'0 0.0
2017-Dec-10 07:00N 29°44' W 095°14'0 0.0
2017-Dec-10 06:27N 29°44' W 095°14'0 0.0
2017-Dec-10 05:54N 29°44' W 095°14'0 0.0
2017-Dec-10 05:15N 29°44' W 095°14'0 0.0
2017-Dec-10 05:00N 29°44' W 095°14'0 0.0
2017-Dec-10 04:24N 29°44' W 095°14'0 0.0
2017-Dec-10 03:39N 29°44' W 095°14'0 0.0
2017-Dec-09 20:09N 29°44' W 095°14'0 0.0
2017-Dec-09 14:57N 29°44' W 095°14'0 0.0
2017-Dec-09 12:21N 29°44' W 095°14'0 0.0
2017-Dec-09 12:00N 29°44' W 095°14'0 0.0
2017-Dec-09 11:13N 29°44' W 095°14'0 0.0
2017-Dec-09 10:46N 29°44' W 095°14'0 0.1
2017-Dec-09 10:22N 29°44' W 095°14'0 0.8
2017-Dec-09 10:00N 29°44' W 095°13'1 2.2
2017-Dec-09 09:28N 29°44' W 095°12'1 2.9
2017-Dec-09 08:59N 29°45' W 095°11'2 4.2
2017-Dec-09 08:30N 29°44' W 095°09'2 4.3
2017-Dec-09 08:00N 29°45' W 095°06'2 3.6
2017-Dec-09 07:29N 29°46' W 095°04'2 4.6
2017-Dec-09 07:00N 29°44' W 095°03'2 4.0
2017-Dec-09 06:30N 29°42' W 095°01'1 2.1
2017-Dec-09 05:51N 29°42' W 095°03'0 0.1
2017-Dec-09 05:30N 29°42' W 095°03'0 0.0
2017-Dec-09 04:57N 29°42' W 095°03'0 0.0
2017-Dec-09 01:54N 29°42' W 095°03'0 0.0
2017-Dec-09 01:24N 29°42' W 095°03'0 0.0
2017-Dec-09 01:00N 29°42' W 095°03'0 0.0
2017-Dec-09 00:30N 29°42' W 095°03'0 0.0
2017-Dec-08 23:48N 29°42' W 095°03'0 0.0
2017-Dec-08 23:24N 29°42' W 095°03'0 0.0
2017-Dec-08 22:57N 29°42' W 095°03'0 0.0
2017-Dec-08 22:27N 29°42' W 095°03'0 0.0
2017-Dec-08 21:54N 29°42' W 095°03'0 0.0
2017-Dec-08 16:48N 29°42' W 095°03'0 0.0
2017-Dec-08 12:06N 29°42' W 095°03'0 0.0
2017-Dec-08 11:54N 29°42' W 095°03'0 0.0
2017-Dec-08 11:30N 29°42' W 095°03'0 0.0
2017-Dec-08 11:00N 29°42' W 095°03'0 0.0
2017-Dec-08 10:30N 29°42' W 095°03'0 0.0
2017-Dec-08 10:00N 29°42' W 095°03'0 0.0
2017-Dec-08 09:30N 29°42' W 095°03'0 0.0
2017-Dec-07 22:30N 29°42' W 095°03'0 0.0
2017-Dec-07 18:12N 29°42' W 095°03'0 0.7
2017-Dec-07 17:56N 29°42' W 095°03'0 0.0
2017-Dec-07 17:26N 29°42' W 095°03'0 0.0
2017-Dec-07 16:56N 29°42' W 095°03'0 0.0
2017-Dec-07 16:20N 29°42' W 095°03'0 0.0
2017-Dec-07 15:50N 29°42' W 095°03'0 0.0
2017-Dec-07 15:26N 29°42' W 095°03'0 0.0
2017-Dec-07 14:50N 29°42' W 095°03'0 0.0
2017-Dec-07 14:14N 29°42' W 095°03'0 0.0
2017-Dec-07 13:56N 29°42' W 095°03'0 0.0
2017-Dec-07 13:26N 29°42' W 095°03'0 0.0
2017-Dec-07 12:50N 29°42' W 095°03'0 0.0
2017-Dec-07 11:44N 29°42' W 095°03'0 0.0
2017-Dec-07 11:26N 29°42' W 095°03'0 0.0
2017-Dec-07 10:08N 29°42' W 095°03'0 0.0
2017-Dec-07 09:59N 29°42' W 095°03'  
Track history (hours):
 
Tides and Currents Weather Stations Pressure Air Temp Water Temp Dewpoint Dewpoint Depression Visibility Wind Speed Wind Dir Waves Ship Positions

Quincey Cenac

Owner: Cenac Marine Services, Houma, LA. More information available from US FCC via Universal Licensing System and Coast Guard Vessel Documentation Center.

Last reported at 2017-Dec-17 08:51 UTC. Time now 2017-Dec-17 09:53 UTC.
Position N 29°46' W 095°05'.

Length 22 m; draft 9.6 m.

Type: Tug. MMSI: 367745570.

Date/timePositionNaut miles runAvg speedWind from/ knotsBaromVisibWave heightAir tempDewpointWater temp
2017-Dec-17 08:51N 29°46' W 095°05'0 0.0
2017-Dec-17 08:30N 29°46' W 095°05'0 0.0
2017-Dec-16 11:42N 29°46' W 095°05'0 0.0
2017-Dec-16 09:57N 29°46' W 095°05'0 0.0
2017-Dec-16 09:30N 29°46' W 095°05'0 0.0
2017-Dec-15 09:12N 29°46' W 095°05'0 0.0
2017-Dec-15 06:36N 29°46' W 095°05'1 2.8
2017-Dec-15 06:12N 29°45' W 095°04'1 5.6
2017-Dec-15 06:00N 29°44' W 095°04'2 4.9
2017-Dec-15 05:30N 29°43' W 095°01'2 4.9
2017-Dec-15 05:00N 29°41' W 094°59'3 6.0
2017-Dec-15 04:30N 29°39' W 094°58'3 6.2
2017-Dec-15 04:00N 29°36' W 094°57'  
2017-Dec-10 14:06N 29°31' W 094°53'1 7.5
2017-Dec-10 13:59N 29°32' W 094°54'3 7.2
2017-Dec-10 13:30N 29°35' W 094°56'4 7.2
2017-Dec-10 13:00N 29°38' W 094°58'4 7.5
2017-Dec-10 12:30N 29°41' W 094°59'3 6.1
2017-Dec-10 11:58N 29°44' W 095°02'3 6.0
2017-Dec-10 11:28N 29°46' W 095°04'2 5.3
2017-Dec-10 11:00N 29°44' W 095°07'3 5.1
2017-Dec-10 10:30N 29°45' W 095°10'2 4.9
2017-Dec-10 10:00N 29°44' W 095°12'1 1.2
2017-Dec-10 08:56N 29°44' W 095°14'0 0.0
2017-Dec-10 07:00N 29°44' W 095°14'0 0.0
2017-Dec-10 06:27N 29°44' W 095°14'0 0.0
2017-Dec-10 05:54N 29°44' W 095°14'0 0.0
2017-Dec-10 05:15N 29°44' W 095°14'0 0.0
2017-Dec-10 05:00N 29°44' W 095°14'0 0.0
2017-Dec-10 04:24N 29°44' W 095°14'0 0.0
2017-Dec-10 03:39N 29°44' W 095°14'0 0.0
2017-Dec-09 20:09N 29°44' W 095°14'0 0.0
2017-Dec-09 14:57N 29°44' W 095°14'0 0.0
2017-Dec-09 12:21N 29°44' W 095°14'0 0.0
2017-Dec-09 12:00N 29°44' W 095°14'0 0.0
2017-Dec-09 11:13N 29°44' W 095°14'0 0.0
2017-Dec-09 10:46N 29°44' W 095°14'0 0.1
2017-Dec-09 10:22N 29°44' W 095°14'0 0.8
2017-Dec-09 10:00N 29°44' W 095°13'1 2.2
2017-Dec-09 09:28N 29°44' W 095°12'1 2.9
2017-Dec-09 08:59N 29°45' W 095°11'2 4.2
2017-Dec-09 08:30N 29°44' W 095°09'2 4.3
2017-Dec-09 08:00N 29°45' W 095°06'2 3.6
2017-Dec-09 07:29N 29°46' W 095°04'2 4.6
2017-Dec-09 07:00N 29°44' W 095°03'2 4.0
2017-Dec-09 06:30N 29°42' W 095°01'1 2.1
2017-Dec-09 05:51N 29°42' W 095°03'0 0.1
2017-Dec-09 05:30N 29°42' W 095°03'0 0.0
2017-Dec-09 04:57N 29°42' W 095°03'0 0.0
2017-Dec-09 01:54N 29°42' W 095°03'0 0.0
2017-Dec-09 01:24N 29°42' W 095°03'0 0.0
2017-Dec-09 01:00N 29°42' W 095°03'0 0.0
2017-Dec-09 00:30N 29°42' W 095°03'0 0.0
2017-Dec-08 23:48N 29°42' W 095°03'0 0.0
2017-Dec-08 23:24N 29°42' W 095°03'0 0.0
2017-Dec-08 22:57N 29°42' W 095°03'0 0.0
2017-Dec-08 22:27N 29°42' W 095°03'0 0.0
2017-Dec-08 21:54N 29°42' W 095°03'0 0.0
2017-Dec-08 16:48N 29°42' W 095°03'0 0.0
2017-Dec-08 12:06N 29°42' W 095°03'0 0.0
2017-Dec-08 11:54N 29°42' W 095°03'0 0.0
2017-Dec-08 11:30N 29°42' W 095°03'0 0.0
2017-Dec-08 11:00N 29°42' W 095°03'0 0.0
2017-Dec-08 10:30N 29°42' W 095°03'0 0.0
2017-Dec-08 10:00N 29°42' W 095°03'0 0.0
2017-Dec-08 09:30N 29°42' W 095°03'0 0.0
2017-Dec-07 22:30N 29°42' W 095°03'0 0.0
2017-Dec-07 18:12N 29°42' W 095°03'0 0.7
2017-Dec-07 17:56N 29°42' W 095°03'0 0.0
2017-Dec-07 17:26N 29°42' W 095°03'0 0.0
2017-Dec-07 16:56N 29°42' W 095°03'0 0.0
2017-Dec-07 16:20N 29°42' W 095°03'0 0.0
2017-Dec-07 15:50N 29°42' W 095°03'0 0.0
2017-Dec-07 15:26N 29°42' W 095°03'0 0.0
2017-Dec-07 14:50N 29°42' W 095°03'0 0.0
2017-Dec-07 14:14N 29°42' W 095°03'0 0.0
2017-Dec-07 13:56N 29°42' W 095°03'0 0.0
2017-Dec-07 13:26N 29°42' W 095°03'0 0.0
2017-Dec-07 12:50N 29°42' W 095°03'0 0.0
2017-Dec-07 11:44N 29°42' W 095°03'0 0.0
2017-Dec-07 11:26N 29°42' W 095°03'0 0.0
2017-Dec-07 10:08N 29°42' W 095°03'0 0.0
2017-Dec-07 09:59N 29°42' W 095°03'  

Dump ship's entire track history